Terminal Aerodrome Forecast
Issued by NWS

Current Version | Previous Version | Text Only | Print | Product List | Glossary Off
Versions: 1 2 3 4 5 6 7 8 9 10 11 12 13 14 15 16

000
FTUS41 KILN 281100
TAFLCK
TAF
KLCK 281139Z 2812/0112 07005KT P6SM BKN100
     FM281800 09005KT P6SM SCT025 BKN070
     FM010400 10003KT 3SM -SN BKN025 OVC050
     FM010600 12003KT 1SM -SN OVC012
      TEMPO 0107/0111 1/2SM SN OVC008=

USA.gov is the U.S. government's official web portal to all federal, state and local government web resources and services.